Cambridge, Idaho
Current Conditions -  °F | °C
As of 8:51 AM on Sunday 21 Dec 2014 (Local Time) from KMYL Reporting Station
Light Rain Light Rain  
Wind Chill: 30°   Ceiling: 800
Heat Index: 34°   Visibility: 8mi
Dew Point: 33°   Wind: 5mph
Humidity: 96%   Direction: 10°N
Pressure: 29.79"   Gusts: NA
Location:  44.57°N, 116.68°W
Report Text: KMYL 211551Z AUTO 01004KT 8SM -RA OVC008 01/01 A2979 RMK AO2 SLP105 P0005 T00110006
Loading
Personal Weather Stations






























Interactive Weather Map New forecast layout! Learn more

10-Day Weather Forecast

Advertisements
Track Severe Weather on mobile